Terminal Aerodrome Forecast
Issued by NWS Wilmington, OH

Current Version | Previous Version | Graphics & Text | Print | Product List | Glossary On
Versions: 1 2 3 4 5 6 7 8 9 10 11 12 13 14
000
FTUS41 KILN 172339
TAFILN
TAF
KILN 172339Z 1800/1824 22009KT P6SM VCSH SCT050 BKN150
      TEMPO 1800/1801 5SM -SHRA BR BKN050 OVC100
     FM180100 23007KT P6SM BKN100
     FM180700 23007KT P6SM SCT020
     FM181400 25011KT P6SM SCT040=

USA.gov is the U.S. government's official web portal to all federal, state and local government web resources and services.